Time;durP1;ratioP1;P1;durP2;ratioP2;P2;SDS_P1;SDS_P2;PMS_P1;PMS_P2;Temp;Humidity;BMP_temperature;BMP_pressure;BME280_temperature;BME280_humidity;BME280_pressure;Samples;Min_cycle;Max_cycle;Signal;HPM_P1;HPM_P2
2023/03/24 00:00:40;;;;;;;;;;;;;;;;;;4969197;28;20056;-65
2023/03/24 00:03:06;;;;;;;;;;;;;;;;;;4985069;28;20279;-64
2023/03/24 00:05:31;;;;;;;;;;;;;;;;;;4987472;28;19921;-66
2023/03/24 00:07:58;;;;;;;;;;;;;;;;;;5004270;28;20447;-64
2023/03/24 00:10:23;;;;;;;;;;;;;;;;;;4966917;28;20371;-65
2023/03/24 00:12:51;;;;;;;;;;;;;;;;;;4971585;28;19944;-65
2023/03/24 00:15:17;;;;;;;;;;;;;;;;;;4982576;28;19955;-64
2023/03/24 00:17:44;;;;;;;;;;;;;;;;;;4969869;28;20836;-65
2023/03/24 00:20:14;;;;;;;;;;;;;;;;;;4968349;28;19932;-65
2023/03/24 00:22:41;;;;;;;;;;;;;;;;;;4983991;28;19921;-65
2023/03/24 00:25:06;;;;;;;;;;;;;;;;;;5001152;28;19916;-63
2023/03/24 00:27:35;;;;;;;;;;;;;;;;;;4969377;28;21609;-65
2023/03/24 00:30:02;;;;;;;;;;;;;;;;;;4984110;28;19949;-63
2023/03/24 00:32:29;;;;;;;;;;;;;;;;;;5000231;28;20010;-64
2023/03/24 00:34:55;;;;;;;;;;;;;;;;;;4986111;28;20376;-65
2023/03/24 00:37:20;;;;;;;;;;;;;;;;;;4967107;28;19928;-65
2023/03/24 00:39:45;;;;;;;;;;;;;;;;;;4968584;28;20002;-65
2023/03/24 00:42:13;;;;;;;;;;;;;;;;;;4980061;28;19921;-63
2023/03/24 00:44:39;;;;;;;;;;;;;;;;;;4981266;28;20336;-66
2023/03/24 00:47:04;;;;;;;;;;;;;;;;;;4967353;28;19976;-65
2023/03/24 00:49:43;;;;;;;;;;;;;;;;;;4985281;28;19921;-65
2023/03/24 00:52:11;;;;;;;;;;;;;;;;;;4981390;28;21784;-65
2023/03/24 00:54:37;;;;;;;;;;;;;;;;;;4984255;28;19917;-65
2023/03/24 00:57:02;;;;;;;;;;;;;;;;;;4969446;28;19936;-65
2023/03/24 00:59:28;;;;;;;;;;;;;;;;;;4983705;28;19924;-64
2023/03/24 01:01:53;;;;;;;;;;;;;;;;;;5000733;28;20040;-64
2023/03/24 01:04:23;;;;;;;;;;;;;;;;;;4999335;28;19957;-66
2023/03/24 01:06:51;;;;;;;;;;;;;;;;;;4986233;28;19983;-65
2023/03/24 01:09:20;;;;;;;;;;;;;;;;;;4982475;28;20047;-67
2023/03/24 01:11:45;;;;;;;;;;;;;;;;;;4998782;28;19960;-66
2023/03/24 01:14:11;;;;;;;;;;;;;;;;;;5001831;28;20004;-65
2023/03/24 01:16:36;;;;;;;;;;;;;;;;;;4983841;28;19921;-65
2023/03/24 01:19:02;;;;;;;;;;;;;;;;;;5003365;28;20458;-66
2023/03/24 01:21:28;;;;;;;;;;;;;;;;;;5016253;28;19984;-65
2023/03/24 01:23:53;;;;;;;;;;;;;;;;;;4982143;28;19927;-65
2023/03/24 01:26:21;;;;;;;;;;;;;;;;;;4966858;28;20523;-67
2023/03/24 01:28:46;;;;;;;;;;;;;;;;;;4981816;28;20002;-67
2023/03/24 01:31:12;;;;;;;;;;;;;;;;;;5001978;28;20073;-66
2023/03/24 01:33:37;;;;;;;;;;;;;;;;;;4980399;28;20039;-63
2023/03/24 01:36:02;;;;;;;;;;;;;;;;;;4985692;28;19917;-63
2023/03/24 01:38:28;;;;;;;;;;;;;;;;;;4984501;28;20008;-65
2023/03/24 01:40:54;;;;;;;;;;;;;;;;;;5001912;28;19925;-66
2023/03/24 01:43:22;;;;;;;;;;;;;;;;;;4984082;28;20537;-66
2023/03/24 01:45:50;;;;;;;;;;;;;;;;;;5001995;28;19936;-67
2023/03/24 01:48:16;;;;;;;;;;;;;;;;;;5016592;28;19917;-65
2023/03/24 01:50:44;;;;;;;;;;;;;;;;;;4999746;28;19976;-66
2023/03/24 01:53:11;;;;;;;;;;;;;;;;;;5001026;28;21006;-66
2023/03/24 01:55:37;;;;;;;;;;;;;;;;;;4965831;28;19921;-66
2023/03/24 01:58:02;;;;;;;;;;;;;;;;;;5003377;28;19921;-66
2023/03/24 02:00:28;;;;;;;;;;;;;;;;;;4984604;28;19925;-66
2023/03/24 02:02:57;;;;;;;;;;;;;;;;;;4983681;28;20019;-64
2023/03/24 02:05:22;;;;;;;;;;;;;;;;;;5001120;28;20046;-66
2023/03/24 02:07:48;;;;;;;;;;;;;;;;;;5014843;28;19925;-68
2023/03/24 02:10:13;;;;;;;;;;;;;;;;;;4981577;28;19913;-66
2023/03/24 02:12:41;;;;;;;;;;;;;;;;;;5014972;28;19918;-65
2023/03/24 02:15:07;;;;;;;;;;;;;;;;;;4967912;28;19995;-65
2023/03/24 02:17:36;;;;;;;;;;;;;;;;;;4986086;28;21771;-66
2023/03/24 02:20:02;;;;;;;;;;;;;;;;;;4984279;28;19948;-66
2023/03/24 02:22:28;;;;;;;;;;;;;;;;;;4983423;28;19928;-66
2023/03/24 02:24:54;;;;;;;;;;;;;;;;;;4986553;28;19986;-64
2023/03/24 02:27:19;;;;;;;;;;;;;;;;;;4965817;28;19932;-65
2023/03/24 02:29:44;;;;;;;;;;;;;;;;;;5015940;28;20451;-67
2023/03/24 02:32:10;;;;;;;;;;;;;;;;;;5002297;28;19921;-63
2023/03/24 02:34:39;;;;;;;;;;;;;;;;;;4966655;28;20523;-66
2023/03/24 02:37:05;;;;;;;;;;;;;;;;;;4985682;28;20376;-66
2023/03/24 02:39:30;;;;;;;;;;;;;;;;;;4979813;28;19937;-66
2023/03/24 02:41:55;;;;;;;;;;;;;;;;;;4984794;28;19922;-65
2023/03/24 02:44:21;;;;;;;;;;;;;;;;;;5022638;28;19932;-66
2023/03/24 02:46:46;;;;;;;;;;;;;;;;;;5003151;28;20003;-67
2023/03/24 02:49:12;;;;;;;;;;;;;;;;;;5001948;28;19932;-67
2023/03/24 02:51:39;;;;;;;;;;;;;;;;;;4990119;28;19921;-65
2023/03/24 02:54:04;;;;;;;;;;;;;;;;;;5002358;28;19927;-66
2023/03/24 02:56:30;;;;;;;;;;;;;;;;;;5018760;28;20276;-67
2023/03/24 02:58:58;;;;;;;;;;;;;;;;;;5021278;28;19921;-66
2023/03/24 03:01:31;;;;;;;;;;;;;;;;;;5000626;28;20565;-66
2023/03/24 03:03:57;;;;;;;;;;;;;;;;;;5019912;28;19921;-66
2023/03/24 03:06:24;;;;;;;;;;;;;;;;;;4989667;28;19940;-66
2023/03/24 03:08:52;;;;;;;;;;;;;;;;;;4998667;28;19921;-65
2023/03/24 03:11:17;;;;;;;;;;;;;;;;;;4987024;28;19928;-65
2023/03/24 03:13:45;;;;;;;;;;;;;;;;;;4988679;28;19920;-63
2023/03/24 03:16:11;;;;;;;;;;;;;;;;;;5001231;28;20335;-67
2023/03/24 03:18:38;;;;;;;;;;;;;;;;;;4985247;28;19929;-65
2023/03/24 03:21:03;;;;;;;;;;;;;;;;;;5001032;28;19972;-64
2023/03/24 03:23:28;;;;;;;;;;;;;;;;;;5011009;28;19983;-65
2023/03/24 03:25:56;;;;;;;;;;;;;;;;;;5021508;28;20288;-67
2023/03/24 03:28:24;;;;;;;;;;;;;;;;;;5006154;28;19995;-62
2023/03/24 03:30:49;;;;;;;;;;;;;;;;;;5016936;28;21679;-64
2023/03/24 03:33:17;;;;;;;;;;;;;;;;;;5003737;28;20024;-66
2023/03/24 03:35:42;;;;;;;;;;;;;;;;;;5010413;28;19975;-68
2023/03/24 03:38:07;;;;;;;;;;;;;;;;;;5000461;28;19955;-64
2023/03/24 03:40:33;;;;;;;;;;;;;;;;;;5020388;28;19924;-68
2023/03/24 03:43:01;;;;;;;;;;;;;;;;;;5032422;28;19951;-68
2023/03/24 03:45:33;;;;;;;;;;;;;;;;;;4980426;28;19976;-65
2023/03/24 03:47:58;;;;;;;;;;;;;;;;;;4979825;28;21877;-67
2023/03/24 03:50:24;;;;;;;;;;;;;;;;;;4999359;28;19976;-66
2023/03/24 03:52:51;;;;;;;;;;;;;;;;;;4978892;28;20376;-65
2023/03/24 03:55:18;;;;;;;;;;;;;;;;;;4975399;28;20507;-66
2023/03/24 03:57:43;;;;;;;;;;;;;;;;;;5000580;28;20581;-66
2023/03/24 04:00:10;;;;;;;;;;;;;;;;;;4969381;28;19925;-65
2023/03/24 04:02:41;;;;;;;;;;;;;;;;;;4985092;28;19921;-64
2023/03/24 04:05:09;;;;;;;;;;;;;;;;;;4982358;28;19928;-66
2023/03/24 04:07:35;;;;;;;;;;;;;;;;;;5001928;28;19964;-68
2023/03/24 04:10:01;;;;;;;;;;;;;;;;;;4978374;28;19992;-64
2023/03/24 04:12:26;;;;;;;;;;;;;;;;;;5002879;28;19924;-69
2023/03/24 04:14:52;;;;;;;;;;;;;;;;;;4982504;28;19917;-70
2023/03/24 04:17:20;;;;;;;;;;;;;;;;;;4986061;28;20351;-68
2023/03/24 04:19:45;;;;;;;;;;;;;;;;;;4979922;28;19932;-67
2023/03/24 04:22:11;;;;;;;;;;;;;;;;;;4986184;28;19921;-67
2023/03/24 04:24:39;;;;;;;;;;;;;;;;;;5004394;28;19925;-68
2023/03/24 04:27:05;;;;;;;;;;;;;;;;;;4967025;28;19917;-65
2023/03/24 04:29:33;;;;;;;;;;;;;;;;;;5001073;28;19975;-66
2023/03/24 04:32:01;;;;;;;;;;;;;;;;;;5004826;28;19928;-68
2023/03/24 04:34:28;;;;;;;;;;;;;;;;;;4984288;28;19924;-66
2023/03/24 04:36:56;;;;;;;;;;;;;;;;;;4984628;28;19923;-65
2023/03/24 04:39:24;;;;;;;;;;;;;;;;;;4984483;28;19955;-65
2023/03/24 04:41:52;;;;;;;;;;;;;;;;;;4982952;28;19987;-68
2023/03/24 04:44:20;;;;;;;;;;;;;;;;;;5024883;28;19925;-64
2023/03/24 04:46:46;;;;;;;;;;;;;;;;;;4986279;28;19920;-65
2023/03/24 04:49:18;;;;;;;;;;;;;;;;;;5006118;28;19917;-69
2023/03/24 04:51:46;;;;;;;;;;;;;;;;;;5023547;28;19920;-65
2023/03/24 04:54:14;;;;;;;;;;;;;;;;;;4986253;28;19924;-65
2023/03/24 04:56:46;;;;;;;;;;;;;;;;;;5019026;28;19931;-65
2023/03/24 04:59:12;;;;;;;;;;;;;;;;;;4999232;28;19932;-65
2023/03/24 05:01:37;;;;;;;;;;;;;;;;;;5002606;28;19924;-64
2023/03/24 05:04:05;;;;;;;;;;;;;;;;;;5004728;28;19928;-64
2023/03/24 05:06:30;;;;;;;;;;;;;;;;;;4999934;28;20819;-64
2023/03/24 05:08:57;;;;;;;;;;;;;;;;;;4987837;28;19917;-63
2023/03/24 05:11:23;;;;;;;;;;;;;;;;;;4986550;28;20008;-63
2023/03/24 05:13:48;;;;;;;;;;;;;;;;;;5021119;28;19921;-64
2023/03/24 05:16:13;;;;;;;;;;;;;;;;;;4999443;28;20594;-64
2023/03/24 05:18:39;;;;;;;;;;;;;;;;;;4986730;28;20039;-63
2023/03/24 05:21:04;;;;;;;;;;;;;;;;;;5002123;28;20291;-65
2023/03/24 05:23:30;;;;;;;;;;;;;;;;;;5001337;28;19933;-64
2023/03/24 05:25:58;;;;;;;;;;;;;;;;;;5003966;28;19925;-63
2023/03/24 05:28:23;;;;;;;;;;;;;;;;;;5019616;28;20528;-63
2023/03/24 05:30:48;;;;;;;;;;;;;;;;;;5005278;28;19920;-65
2023/03/24 05:33:16;;;;;;;;;;;;;;;;;;5003208;28;19921;-65
2023/03/24 05:35:42;;;;;;;;;;;;;;;;;;5004633;28;19917;-64
2023/03/24 05:38:07;;;;;;;;;;;;;;;;;;5019865;28;21560;-67
2023/03/24 05:40:32;;;;;;;;;;;;;;;;;;5021105;28;19925;-63
2023/03/24 05:42:58;;;;;;;;;;;;;;;;;;5022201;28;20780;-64
2023/03/24 05:45:24;;;;;;;;;;;;;;;;;;5000318;28;19928;-63
2023/03/24 05:47:52;;;;;;;;;;;;;;;;;;5003666;28;19944;-63
2023/03/24 05:50:17;;;;;;;;;;;;;;;;;;5016549;28;19975;-63
2023/03/24 05:52:42;;;;;;;;;;;;;;;;;;5003142;28;20351;-63
2023/03/24 05:55:08;;;;;;;;;;;;;;;;;;5022556;28;21920;-63
2023/03/24 05:57:35;;;;;;;;;;;;;;;;;;4982333;28;19928;-67
2023/03/24 06:00:00;;;;;;;;;;;;;;;;;;5003002;28;19997;-64
2023/03/24 06:02:29;;;;;;;;;;;;;;;;;;5022539;28;19927;-67
2023/03/24 06:04:56;;;;;;;;;;;;;;;;;;5020853;28;19921;-64
2023/03/24 06:07:25;;;;;;;;;;;;;;;;;;4986098;28;19917;-66
2023/03/24 06:09:51;;;;;;;;;;;;;;;;;;5019772;28;19920;-65
2023/03/24 06:12:21;;;;;;;;;;;;;;;;;;5022594;28;19927;-65
2023/03/24 06:14:52;;;;;;;;;;;;;;;;;;5006401;28;19921;-65
2023/03/24 06:17:20;;;;;;;;;;;;;;;;;;5023789;28;19921;-65
2023/03/24 06:19:48;;;;;;;;;;;;;;;;;;5004731;28;19995;-67
2023/03/24 06:22:16;;;;;;;;;;;;;;;;;;5023295;28;19974;-68
2023/03/24 06:24:45;;;;;;;;;;;;;;;;;;5007435;28;19938;-67
2023/03/24 06:27:14;;;;;;;;;;;;;;;;;;5008709;28;19971;-65
2023/03/24 06:29:41;;;;;;;;;;;;;;;;;;5002380;28;19921;-66
2023/03/24 06:32:06;;;;;;;;;;;;;;;;;;5022619;28;20007;-68
2023/03/24 06:34:32;;;;;;;;;;;;;;;;;;4987288;28;19971;-66
2023/03/24 06:36:57;;;;;;;;;;;;;;;;;;5004272;28;20809;-66
2023/03/24 06:39:22;;;;;;;;;;;;;;;;;;4984918;28;19955;-66
2023/03/24 06:41:48;;;;;;;;;;;;;;;;;;4987222;28;20380;-65
2023/03/24 06:44:16;;;;;;;;;;;;;;;;;;5003334;28;19975;-66
2023/03/24 06:46:41;;;;;;;;;;;;;;;;;;5003629;28;19916;-67
2023/03/24 06:49:09;;;;;;;;;;;;;;;;;;5022758;28;19925;-67
2023/03/24 06:51:35;;;;;;;;;;;;;;;;;;5005332;28;20287;-68
2023/03/24 06:54:03;;;;;;;;;;;;;;;;;;5004199;28;19917;-68
2023/03/24 06:56:29;;;;;;;;;;;;;;;;;;5019518;28;20395;-68
2023/03/24 06:58:54;;;;;;;;;;;;;;;;;;5001877;28;20023;-67
2023/03/24 07:01:23;;;;;;;;;;;;;;;;;;5023734;28;19920;-67
2023/03/24 07:03:48;;;;;;;;;;;;;;;;;;4998277;28;19924;-67
2023/03/24 07:06:13;;;;;;;;;;;;;;;;;;5017727;28;19921;-69
2023/03/24 07:08:39;;;;;;;;;;;;;;;;;;4996982;28;20001;-73
2023/03/24 07:11:05;;;;;;;;;;;;;;;;;;4998824;28;19999;-70
2023/03/24 07:13:31;;;;;;;;;;;;;;;;;;4999905;28;19920;-65
2023/03/24 07:15:56;;;;;;;;;;;;;;;;;;5014524;28;20817;-68
2023/03/24 07:18:21;;;;;;;;;;;;;;;;;;5002473;28;19921;-67
2023/03/24 07:20:49;;;;;;;;;;;;;;;;;;4998220;28;19936;-66
2023/03/24 07:23:14;;;;;;;;;;;;;;;;;;4986457;28;19956;-67
2023/03/24 07:25:40;;;;;;;;;;;;;;;;;;5002539;28;19920;-69
2023/03/24 07:28:06;;;;;;;;;;;;;;;;;;5024167;28;20490;-71
2023/03/24 07:30:32;;;;;;;;;;;;;;;;;;5007609;28;20145;-66
2023/03/24 07:33:00;;;;;;;;;;;;;;;;;;5006859;28;20462;-68
2023/03/24 07:35:28;;;;;;;;;;;;;;;;;;5003520;28;20054;-67
2023/03/24 07:37:54;;;;;;;;;;;;;;;;;;5005565;28;19928;-65
2023/03/24 07:40:20;;;;;;;;;;;;;;;;;;5002858;28;19924;-67
2023/03/24 07:42:46;;;;;;;;;;;;;;;;;;5022710;28;20265;-70
2023/03/24 07:45:11;;;;;;;;;;;;;;;;;;5035725;28;19963;-68
2023/03/24 07:47:37;;;;;;;;;;;;;;;;;;5000190;28;20118;-69
2023/03/24 07:50:05;;;;;;;;;;;;;;;;;;5025551;28;19916;-66
2023/03/24 07:52:30;;;;;;;;;;;;;;;;;;5007325;28;20497;-66
2023/03/24 07:54:56;;;;;;;;;;;;;;;;;;5000504;28;19921;-70
2023/03/24 07:57:21;;;;;;;;;;;;;;;;;;5006660;28;19917;-66
2023/03/24 07:59:47;;;;;;;;;;;;;;;;;;5008042;28;20386;-67
2023/03/24 08:02:15;;;;;;;;;;;;;;;;;;5026104;28;19923;-66
2023/03/24 08:04:41;;;;;;;;;;;;;;;;;;5023569;28;19925;-66
2023/03/24 08:07:07;;;;;;;;;;;;;;;;;;5023243;28;19931;-66
2023/03/24 08:09:35;;;;;;;;;;;;;;;;;;4990008;28;19921;-69
2023/03/24 08:12:00;;;;;;;;;;;;;;;;;;5008220;28;19917;-65
2023/03/24 08:14:28;;;;;;;;;;;;;;;;;;5024088;28;21116;-66
2023/03/24 08:16:53;;;;;;;;;;;;;;;;;;5006531;28;21849;-66
2023/03/24 08:19:21;;;;;;;;;;;;;;;;;;4990358;28;20322;-68
2023/03/24 08:21:46;;;;;;;;;;;;;;;;;;4977842;28;19926;-66
2023/03/24 08:24:12;;;;;;;;;;;;;;;;;;5025084;28;19921;-66
2023/03/24 08:26:37;;;;;;;;;;;;;;;;;;5001359;28;20529;-66
2023/03/24 08:29:05;;;;;;;;;;;;;;;;;;5008996;28;19927;-68
2023/03/24 08:31:30;;;;;;;;;;;;;;;;;;5007725;28;19921;-67
2023/03/24 08:33:56;;;;;;;;;;;;;;;;;;5006153;28;19917;-67
2023/03/24 08:36:25;;;;;;;;;;;;;;;;;;4988631;28;19920;-68
2023/03/24 08:38:53;;;;;;;;;;;;;;;;;;5006738;28;20893;-68
2023/03/24 08:41:18;;;;;;;;;;;;;;;;;;5012880;28;20037;-66
2023/03/24 08:43:44;;;;;;;;;;;;;;;;;;5023947;28;19917;-67
2023/03/24 08:46:14;;;;;;;;;;;;;;;;;;5008711;28;19989;-67
2023/03/24 08:48:39;;;;;;;;;;;;;;;;;;5023924;28;19927;-65
2023/03/24 08:51:05;;;;;;;;;;;;;;;;;;5004483;28;19916;-68
2023/03/24 08:53:33;;;;;;;;;;;;;;;;;;5005956;28;20403;-68
2023/03/24 08:55:58;;;;;;;;;;;;;;;;;;5003138;28;19951;-66
2023/03/24 08:58:24;;;;;;;;;;;;;;;;;;4991941;28;20047;-68
2023/03/24 09:00:49;;;;;;;;;;;;;;;;;;5004964;28;19925;-68
2023/03/24 09:03:17;;;;;;;;;;;;;;;;;;4984727;28;20930;-66
2023/03/24 09:05:42;;;;;;;;;;;;;;;;;;5006939;28;19917;-69
2023/03/24 09:08:07;;;;;;;;;;;;;;;;;;5020969;28;19971;-67
2023/03/24 09:10:35;;;;;;;;;;;;;;;;;;5006977;28;19917;-67
2023/03/24 09:13:01;;;;;;;;;;;;;;;;;;5035568;28;20331;-66
2023/03/24 09:15:26;;;;;;;;;;;;;;;;;;5024572;28;19923;-66
2023/03/24 09:17:51;;;;;;;;;;;;;;;;;;5020851;28;19917;-68
2023/03/24 09:20:17;;;;;;;;;;;;;;;;;;5004421;28;19924;-68
2023/03/24 09:22:42;;;;;;;;;;;;;;;;;;5018932;28;19963;-68
2023/03/24 09:25:08;;;;;;;;;;;;;;;;;;5004050;28;19931;-67
2023/03/24 09:27:33;;;;;;;;;;;;;;;;;;5005137;28;19992;-66
2023/03/24 09:29:58;;;;;;;;;;;;;;;;;;5005037;28;20458;-69
2023/03/24 09:32:24;;;;;;;;;;;;;;;;;;5003650;28;20007;-69
2023/03/24 09:34:49;;;;;;;;;;;;;;;;;;5002217;28;22036;-65
2023/03/24 09:37:15;;;;;;;;;;;;;;;;;;5022523;28;19928;-67
2023/03/24 09:39:40;;;;;;;;;;;;;;;;;;4998725;28;20004;-70
2023/03/24 09:42:06;;;;;;;;;;;;;;;;;;5018724;28;20033;-67
2023/03/24 09:44:31;;;;;;;;;;;;;;;;;;4997215;28;20413;-68
2023/03/24 09:46:57;;;;;;;;;;;;;;;;;;5003960;28;19926;-69
2023/03/24 09:49:23;;;;;;;;;;;;;;;;;;4985542;28;19932;-66
2023/03/24 09:51:48;;;;;;;;;;;;;;;;;;4990473;28;20919;-67
2023/03/24 09:54:14;;;;;;;;;;;;;;;;;;4986011;28;19917;-69
2023/03/24 09:56:40;;;;;;;;;;;;;;;;;;4981627;28;20350;-67
2023/03/24 09:59:05;;;;;;;;;;;;;;;;;;4987064;28;19917;-67
2023/03/24 10:01:30;;;;;;;;;;;;;;;;;;4968998;28;20172;-67
2023/03/24 10:03:56;;;;;;;;;;;;;;;;;;4985538;28;19952;-68
2023/03/24 10:06:25;;;;;;;;;;;;;;;;;;5018931;28;20043;-68
2023/03/24 10:08:50;;;;;;;;;;;;;;;;;;5001488;28;20024;-66
2023/03/24 10:11:16;;;;;;;;;;;;;;;;;;4983285;28;20056;-67
2023/03/24 10:13:41;;;;;;;;;;;;;;;;;;5005660;28;19971;-71
2023/03/24 10:16:07;;;;;;;;;;;;;;;;;;5005021;28;20032;-68
2023/03/24 10:18:34;;;;;;;;;;;;;;;;;;4971713;28;20949;-68
2023/03/24 10:21:03;;;;;;;;;;;;;;;;;;5001510;28;19921;-69
2023/03/24 10:23:28;;;;;;;;;;;;;;;;;;4982851;28;19921;-71
2023/03/24 10:25:53;;;;;;;;;;;;;;;;;;4985110;28;19927;-67
2023/03/24 10:28:19;;;;;;;;;;;;;;;;;;5002463;28;19924;-71
2023/03/24 10:30:45;;;;;;;;;;;;;;;;;;4985837;28;19921;-68
2023/03/24 10:33:10;;;;;;;;;;;;;;;;;;5003827;28;20000;-70
2023/03/24 10:35:35;;;;;;;;;;;;;;;;;;5004195;28;20047;-70
2023/03/24 10:38:01;;;;;;;;;;;;;;;;;;4980946;28;19948;-71
2023/03/24 10:40:26;;;;;;;;;;;;;;;;;;5003265;28;19925;-69
2023/03/24 10:42:51;;;;;;;;;;;;;;;;;;4987798;28;19917;-71
2023/03/24 10:45:17;;;;;;;;;;;;;;;;;;5029329;28;19936;-69
2023/03/24 10:47:42;;;;;;;;;;;;;;;;;;5006868;28;20385;-72
2023/03/24 10:50:07;;;;;;;;;;;;;;;;;;5038311;28;19921;-68
2023/03/24 10:52:33;;;;;;;;;;;;;;;;;;5003510;28;19921;-68
2023/03/24 10:54:58;;;;;;;;;;;;;;;;;;5005195;28;21241;-68
2023/03/24 10:57:23;;;;;;;;;;;;;;;;;;4999400;28;19921;-72
2023/03/24 10:59:49;;;;;;;;;;;;;;;;;;5003196;28;20003;-70
2023/03/24 11:02:15;;;;;;;;;;;;;;;;;;4986191;28;19956;-71
2023/03/24 11:04:43;;;;;;;;;;;;;;;;;;4988767;28;19917;-72
2023/03/24 11:07:08;;;;;;;;;;;;;;;;;;5023037;28;19920;-69
2023/03/24 11:09:34;;;;;;;;;;;;;;;;;;5021769;28;19935;-72
2023/03/24 11:12:02;;;;;;;;;;;;;;;;;;5001972;28;19951;-75
2023/03/24 11:14:27;;;;;;;;;;;;;;;;;;5018743;28;19928;-70
2023/03/24 11:16:52;;;;;;;;;;;;;;;;;;4986988;28;19917;-74
2023/03/24 11:19:18;;;;;;;;;;;;;;;;;;5022382;28;22039;-69
2023/03/24 11:21:43;;;;;;;;;;;;;;;;;;5002016;28;19971;-69
2023/03/24 11:24:08;;;;;;;;;;;;;;;;;;5019556;28;19917;-69
2023/03/24 11:26:33;;;;;;;;;;;;;;;;;;5021285;28;20043;-74
2023/03/24 11:28:59;;;;;;;;;;;;;;;;;;4986537;28;20078;-69
2023/03/24 11:31:29;;;;;;;;;;;;;;;;;;4987806;28;21739;-72
2023/03/24 11:33:55;;;;;;;;;;;;;;;;;;4985385;28;20003;-73
2023/03/24 11:36:20;;;;;;;;;;;;;;;;;;5036872;28;19920;-71
2023/03/24 11:38:47;;;;;;;;;;;;;;;;;;4986791;28;22051;-72
2023/03/24 11:41:15;;;;;;;;;;;;;;;;;;5021210;28;20438;-71
2023/03/24 11:43:40;;;;;;;;;;;;;;;;;;4987092;28;21986;-75
2023/03/24 11:46:12;;;;;;;;;;;;;;;;;;5021722;28;19951;-71
2023/03/24 11:48:38;;;;;;;;;;;;;;;;;;5003082;28;19917;-74
2023/03/24 11:51:03;;;;;;;;;;;;;;;;;;4976805;28;19931;-69
2023/03/24 11:53:28;;;;;;;;;;;;;;;;;;4987743;28;20844;-69
2023/03/24 11:55:54;;;;;;;;;;;;;;;;;;5002154;28;19959;-70
2023/03/24 11:58:20;;;;;;;;;;;;;;;;;;5018599;28;19925;-71
2023/03/24 12:00:45;;;;;;;;;;;;;;;;;;5018263;28;20635;-70
2023/03/24 12:03:11;;;;;;;;;;;;;;;;;;5022716;28;19935;-70
2023/03/24 12:05:36;;;;;;;;;;;;;;;;;;5000470;28;19923;-70
2023/03/24 12:08:04;;;;;;;;;;;;;;;;;;5000180;28;19924;-70
2023/03/24 12:10:29;;;;;;;;;;;;;;;;;;5002112;28;20010;-70
2023/03/24 12:12:55;;;;;;;;;;;;;;;;;;4975432;28;19917;-68
2023/03/24 12:15:21;;;;;;;;;;;;;;;;;;5004803;28;19921;-71
2023/03/24 12:17:46;;;;;;;;;;;;;;;;;;5003901;28;19928;-72
2023/03/24 12:20:13;;;;;;;;;;;;;;;;;;5018696;28;19928;-72
2023/03/24 12:22:38;;;;;;;;;;;;;;;;;;5020096;28;20875;-74
2023/03/24 12:25:04;;;;;;;;;;;;;;;;;;4994787;28;19917;-70
2023/03/24 12:27:30;;;;;;;;;;;;;;;;;;5000704;28;20584;-70
2023/03/24 12:29:55;;;;;;;;;;;;;;;;;;4987157;28;20392;-69
2023/03/24 12:32:20;;;;;;;;;;;;;;;;;;5005976;28;20856;-73
2023/03/24 12:34:46;;;;;;;;;;;;;;;;;;5022787;28;19921;-68
2023/03/24 12:37:11;;;;;;;;;;;;;;;;;;4989952;28;21290;-69
2023/03/24 12:39:37;;;;;;;;;;;;;;;;;;5005454;28;20891;-68
2023/03/24 12:42:02;;;;;;;;;;;;;;;;;;5004935;28;19926;-71
2023/03/24 12:44:28;;;;;;;;;;;;;;;;;;4999624;28;19931;-68
2023/03/24 12:46:53;;;;;;;;;;;;;;;;;;4970748;28;19931;-69
2023/03/24 12:49:19;;;;;;;;;;;;;;;;;;5002160;28;19921;-70
2023/03/24 12:51:45;;;;;;;;;;;;;;;;;;5003329;28;20407;-70
2023/03/24 12:54:10;;;;;;;;;;;;;;;;;;5000094;28;19921;-71
2023/03/24 12:56:35;;;;;;;;;;;;;;;;;;4969906;28;19917;-70
2023/03/24 12:59:01;;;;;;;;;;;;;;;;;;4983175;28;21827;-69
2023/03/24 13:05:03;;;;;;;;;;;;;;;;;;;;;
2023/03/24 13:07:46;;;;;;;;;;;;;;;;;;5010766;28;19979;-68
2023/03/24 13:10:27;;;;;;;;;;;;;;;;;;;;;
2023/03/24 13:12:57;;;;;;;;;;;;;;;;;;4980787;28;19929;-69
2023/03/24 13:15:23;;;;;;;;;;;;;;;;;;4999802;28;21300;-69
2023/03/24 13:17:49;;;;;;;;;;;;;;;;;;4981944;28;19921;-68
2023/03/24 13:20:26;;;;;;;;;;;;;;;;;;4979981;28;20011;-70
2023/03/24 13:22:53;;;;;;;;;;;;;;;;;;4983603;28;19925;-74
2023/03/24 13:25:20;;;;;;;;;;;;;;;;;;4960031;28;20014;-68
2023/03/24 13:27:48;;;;;;;;;;;;;;;;;;4976347;28;19925;-68
2023/03/24 13:30:20;;;;;;;;;;;;;;;;;;4965865;28;19956;-68
2023/03/24 13:32:50;;;;;;;;;;;;;;;;;;4978155;28;19928;-72
2023/03/24 13:36:14;;;;;;;;;;;;;;;;;;4978938;28;19944;-69
2023/03/24 13:38:53;;;;;;;;;;;;;;;;;;4998399;28;19935;-69
2023/03/24 13:41:18;;;;;;;;;;;;;;;;;;4983903;28;20459;-68
2023/03/24 13:43:44;;;;;;;;;;;;;;;;;;4997446;28;19921;-68
2023/03/24 13:46:12;;;;;;;;;;;;;;;;;;4965869;28;19983;-68
2023/03/24 13:48:37;;;;;;;;;;;;;;;;;;4998901;28;20269;-68
2023/03/24 13:51:03;;;;;;;;;;;;;;;;;;4997002;28;19936;-69
2023/03/24 13:53:30;;;;;;;;;;;;;;;;;;4996326;28;20385;-76
2023/03/24 13:55:56;;;;;;;;;;;;;;;;;;4975326;28;19921;-67
2023/03/24 13:58:21;;;;;;;;;;;;;;;;;;4978820;28;21310;-72
2023/03/24 14:00:49;;;;;;;;;;;;;;;;;;4956510;28;19923;-72
2023/03/24 14:03:19;;;;;;;;;;;;;;;;;;4978463;28;20353;-72
2023/03/24 14:05:45;;;;;;;;;;;;;;;;;;4978729;28;19917;-71
2023/03/24 14:08:14;;;;;;;;;;;;;;;;;;4977417;28;20392;-76
2023/03/24 14:10:41;;;;;;;;;;;;;;;;;;4979120;28;20260;-73
2023/03/24 14:13:08;;;;;;;;;;;;;;;;;;4957683;28;20016;-76
2023/03/24 14:18:25;;;;;;;;;;;;;;;;;;4996290;28;20098;-70
2023/03/24 14:20:51;;;;;;;;;;;;;;;;;;4998130;28;20356;-69
2023/03/24 14:23:29;;;;;;;;;;;;;;;;;;4962186;28;19956;-70
2023/03/24 14:25:58;;;;;;;;;;;;;;;;;;4963603;28;19956;-69
2023/03/24 14:28:28;;;;;;;;;;;;;;;;;;4964147;28;19983;-68
2023/03/24 14:30:55;;;;;;;;;;;;;;;;;;4973714;28;19921;-69
2023/03/24 14:33:21;;;;;;;;;;;;;;;;;;4979312;28;19917;-71
2023/03/24 14:35:47;;;;;;;;;;;;;;;;;;4993372;28;21414;-69
2023/03/24 14:38:25;;;;;;;;;;;;;;;;;;4967084;28;19925;-74
2023/03/24 14:41:29;;;;;;;;;;;;;;;;;;4921077;28;20337;-65
2023/03/24 14:43:57;;;;;;;;;;;;;;;;;;4935987;28;20071;-68
2023/03/24 14:46:22;;;;;;;;;;;;;;;;;;4951200;28;19930;-68
2023/03/24 14:48:48;;;;;;;;;;;;;;;;;;4992275;28;19924;-67
2023/03/24 14:57:08;;;;;;;;;;;;;;;;;;4959142;28;19917;-69
2023/03/24 14:59:35;;;;;;;;;;;;;;;;;;4990058;28;19934;-69
2023/03/24 15:02:00;;;;;;;;;;;;;;;;;;4992239;28;20392;-67
2023/03/24 15:04:28;;;;;;;;;;;;;;;;;;4977625;28;20045;-68
2023/03/24 15:06:54;;;;;;;;;;;;;;;;;;4992737;28;19968;-69
2023/03/24 15:09:19;;;;;;;;;;;;;;;;;;4975695;28;19949;-67
2023/03/24 15:11:45;;;;;;;;;;;;;;;;;;5005317;28;21491;-67
2023/03/24 15:14:10;;;;;;;;;;;;;;;;;;5001820;28;20141;-68
2023/03/24 15:16:35;;;;;;;;;;;;;;;;;;5020333;28;19928;-67
2023/03/24 15:19:01;;;;;;;;;;;;;;;;;;5034138;28;20270;-67
2023/03/24 15:21:27;;;;;;;;;;;;;;;;;;5018241;28;20043;-68
2023/03/24 15:23:55;;;;;;;;;;;;;;;;;;5000941;28;19947;-67
2023/03/24 15:26:24;;;;;;;;;;;;;;;;;;5000745;28;19928;-67
2023/03/24 15:28:49;;;;;;;;;;;;;;;;;;5014022;28;19920;-67
2023/03/24 15:31:21;;;;;;;;;;;;;;;;;;5012903;28;20117;-67
2023/03/24 15:33:49;;;;;;;;;;;;;;;;;;5018545;28;19989;-67
2023/03/24 15:36:19;;;;;;;;;;;;;;;;;;5031817;28;19927;-70
2023/03/24 15:38:49;;;;;;;;;;;;;;;;;;5017928;28;19921;-67
2023/03/24 15:41:15;;;;;;;;;;;;;;;;;;5001732;28;19944;-68
2023/03/24 15:43:41;;;;;;;;;;;;;;;;;;5011921;28;19920;-67
2023/03/24 15:46:07;;;;;;;;;;;;;;;;;;4981539;28;20735;-69
2023/03/24 15:48:36;;;;;;;;;;;;;;;;;;4972197;28;19941;-69
2023/03/24 15:51:02;;;;;;;;;;;;;;;;;;4974295;28;20491;-68
2023/03/24 15:53:27;;;;;;;;;;;;;;;;;;4993085;28;20045;-69
2023/03/24 15:55:53;;;;;;;;;;;;;;;;;;4997950;28;19921;-68
2023/03/24 15:58:21;;;;;;;;;;;;;;;;;;4976136;28;19964;-66
2023/03/24 16:00:46;;;;;;;;;;;;;;;;;;4989983;28;21412;-70
2023/03/24 16:03:14;;;;;;;;;;;;;;;;;;4981017;28;20390;-69
2023/03/24 16:05:46;;;;;;;;;;;;;;;;;;4999547;28;20006;-68
2023/03/24 16:08:11;;;;;;;;;;;;;;;;;;4983828;28;20620;-69
2023/03/24 16:10:43;;;;;;;;;;;;;;;;;;4974778;28;19925;-67
2023/03/24 16:13:09;;;;;;;;;;;;;;;;;;4979041;28;20288;-69
2023/03/24 16:15:35;;;;;;;;;;;;;;;;;;4995731;28;19921;-68
2023/03/24 16:18:03;;;;;;;;;;;;;;;;;;4981566;28;19972;-67
2023/03/24 16:20:28;;;;;;;;;;;;;;;;;;4994015;28;20004;-67
2023/03/24 16:22:55;;;;;;;;;;;;;;;;;;4967415;28;19921;-67
2023/03/24 16:25:21;;;;;;;;;;;;;;;;;;5000146;28;20539;-66
2023/03/24 16:27:47;;;;;;;;;;;;;;;;;;4980739;28;19925;-66
2023/03/24 16:30:12;;;;;;;;;;;;;;;;;;4966063;28;20307;-66
2023/03/24 16:32:38;;;;;;;;;;;;;;;;;;4965399;28;20305;-66
2023/03/24 16:35:03;;;;;;;;;;;;;;;;;;4975452;28;19959;-66
2023/03/24 16:37:31;;;;;;;;;;;;;;;;;;4964201;28;21638;-65
2023/03/24 16:39:59;;;;;;;;;;;;;;;;;;4981426;28;20189;-66
2023/03/24 16:42:25;;;;;;;;;;;;;;;;;;4994738;28;20304;-68
2023/03/24 16:45:00;;;;;;;;;;;;;;;;;;4980608;28;19924;-70
2023/03/24 16:47:25;;;;;;;;;;;;;;;;;;5017577;28;20726;-67
2023/03/24 16:49:50;;;;;;;;;;;;;;;;;;5016861;28;20006;-68
2023/03/24 16:52:16;;;;;;;;;;;;;;;;;;4990847;28;20415;-66
2023/03/24 16:54:44;;;;;;;;;;;;;;;;;;4991509;28;20344;-66